createdAt,value
2024-01-25T00:01:38.971Z,101467.63
2024-01-25T00:04:07.048Z,101474.91
2024-01-25T00:06:33.938Z,101485.03
2024-01-25T00:09:00.411Z,101468.75
2024-01-25T00:11:26.886Z,101465.47
2024-01-25T00:13:53.358Z,101459.38
2024-01-25T00:16:20.094Z,101471.00
2024-01-25T00:18:46.769Z,101474.38
2024-01-25T00:21:17.370Z,101467.50
2024-01-25T00:23:43.801Z,101477.13
2024-01-25T00:26:10.266Z,101476.88
2024-01-25T00:28:36.673Z,101480.53
2024-01-25T00:31:03.284Z,101471.09
2024-01-25T00:33:29.933Z,101485.66
2024-01-25T00:35:56.917Z,101479.34
2024-01-25T00:38:25.376Z,101474.31
2024-01-25T00:40:54.290Z,101485.19
2024-01-25T00:43:21.314Z,101492.13
2024-01-25T00:45:48.387Z,101488.50
2024-01-25T00:48:15.447Z,101487.09
2024-01-25T00:50:42.593Z,101486.88
2024-01-25T00:53:09.934Z,101505.09
2024-01-25T00:55:38.486Z,101494.63
2024-01-25T00:58:05.783Z,101502.34
2024-01-25T01:00:32.759Z,101495.63
2024-01-25T01:03:03.928Z,101498.72
2024-01-25T01:05:31.129Z,101497.88
2024-01-25T01:07:58.162Z,101488.63
2024-01-25T01:10:24.716Z,101496.75
2024-01-25T01:12:52.593Z,101503.50
2024-01-25T01:15:19.217Z,101478.66
2024-01-25T01:17:45.761Z,101489.16
2024-01-25T01:20:12.707Z,101481.75
2024-01-25T01:22:39.267Z,101483.94
2024-01-25T01:25:06.017Z,101481.31
2024-01-25T01:27:32.581Z,101482.69
2024-01-25T01:30:00.405Z,101480.28
2024-01-25T01:32:27.020Z,101490.31
2024-01-25T01:34:53.689Z,101498.38
2024-01-25T01:37:20.392Z,101497.47
2024-01-25T01:39:46.965Z,101500.31
2024-01-25T01:42:13.391Z,101501.09
2024-01-25T01:44:40.420Z,101492.59
2024-01-25T01:47:08.807Z,101489.81
2024-01-25T01:49:35.693Z,101498.00
2024-01-25T01:52:03.016Z,101500.63
2024-01-25T01:54:29.836Z,101506.78
2024-01-25T01:56:56.763Z,101501.88
2024-01-25T01:59:23.407Z,101498.94
2024-01-25T02:01:50.039Z,101497.13
2024-01-25T02:04:18.422Z,101491.25
2024-01-25T02:06:45.230Z,101504.53
2024-01-25T02:09:12.294Z,101516.25
2024-01-25T02:11:38.750Z,101515.88
2024-01-25T02:14:05.150Z,101512.28
2024-01-25T02:16:31.850Z,101529.41
2024-01-25T02:18:59.505Z,101525.03
2024-01-25T02:21:27.781Z,101524.34
2024-01-25T02:23:55.777Z,101546.97
2024-01-25T02:26:23.100Z,101538.59
2024-01-25T02:28:49.564Z,101526.84
2024-01-25T02:31:16.359Z,101538.31
2024-01-25T02:33:43.024Z,101533.06
2024-01-25T02:36:09.558Z,101546.59
2024-01-25T02:38:35.987Z,101534.88
2024-01-25T02:41:04.057Z,101531.91
2024-01-25T02:43:30.455Z,101534.69
2024-01-25T02:45:56.927Z,101540.84
2024-01-25T02:48:23.430Z,101556.34
2024-01-25T02:50:49.977Z,101548.28
2024-01-25T02:53:16.688Z,101546.75
2024-01-25T02:55:43.115Z,101554.81
2024-01-25T02:58:10.901Z,101565.75
2024-01-25T03:00:37.426Z,101562.66
2024-01-25T03:03:04.230Z,101565.09
2024-01-25T03:05:30.852Z,101562.53
2024-01-25T03:07:57.705Z,101561.41
2024-01-25T03:10:24.312Z,101567.59
2024-01-25T03:12:50.775Z,101563.44
2024-01-25T03:15:18.767Z,101569.66
2024-01-25T03:17:45.213Z,101566.69
2024-01-25T03:20:12.108Z,101570.91
2024-01-25T03:22:38.725Z,101569.13
2024-01-25T03:25:05.708Z,101570.06
2024-01-25T03:27:32.291Z,101575.03
2024-01-25T03:29:58.817Z,101574.31
2024-01-25T03:32:26.660Z,101582.16
2024-01-25T03:34:53.156Z,101583.47
2024-01-25T03:37:19.904Z,101581.09
2024-01-25T03:39:46.468Z,101588.72
2024-01-25T03:42:12.903Z,101582.84
2024-01-25T03:44:39.359Z,101590.31
2024-01-25T03:47:05.882Z,101600.44
2024-01-25T03:49:33.678Z,101595.38
2024-01-25T03:52:00.319Z,101591.53
2024-01-25T03:54:26.727Z,101595.81
2024-01-25T03:56:55.100Z,101599.13
2024-01-25T03:59:21.569Z,101593.84
2024-01-25T04:01:49.211Z,101598.94
2024-01-25T04:04:16.595Z,101600.25
2024-01-25T04:06:45.624Z,101601.09
2024-01-25T04:09:12.394Z,101609.94
2024-01-25T04:11:39.135Z,101594.69
2024-01-25T04:14:05.890Z,101598.13
2024-01-25T04:16:33.058Z,101606.38
2024-01-25T04:18:59.584Z,101605.97
2024-01-25T04:21:26.163Z,101607.56
2024-01-25T04:23:54.276Z,101607.31
2024-01-25T04:26:20.677Z,101608.69
2024-01-25T04:28:47.161Z,101613.75
2024-01-25T04:31:13.625Z,101611.50
2024-01-25T04:33:40.785Z,101614.09
2024-01-25T04:36:08.209Z,101623.06
2024-01-25T04:38:34.635Z,101620.72
2024-01-25T04:41:02.376Z,101611.78
2024-01-25T04:43:28.949Z,101619.78
2024-01-25T04:45:55.424Z,101609.91
2024-01-25T04:48:21.947Z,101613.66
2024-01-25T04:50:48.399Z,101619.50
2024-01-25T04:53:14.816Z,101623.88
2024-01-25T04:55:41.234Z,101620.97
2024-01-25T04:58:09.047Z,101624.72
2024-01-25T05:00:35.546Z,101621.97
2024-01-25T05:03:02.013Z,101634.00
2024-01-25T05:05:28.471Z,101648.38
2024-01-25T05:07:55.002Z,101659.06
2024-01-25T05:10:21.576Z,101658.47
2024-01-25T05:12:48.215Z,101666.38
2024-01-25T05:15:16.028Z,101671.38
2024-01-25T05:17:42.458Z,101667.16
2024-01-25T05:20:09.580Z,101674.56
2024-01-25T05:22:36.003Z,101682.72
2024-01-25T05:25:02.595Z,101685.53
2024-01-25T05:27:29.121Z,101694.34
2024-01-25T05:29:55.668Z,101702.94
2024-01-25T05:32:23.380Z,101700.56
2024-01-25T05:34:49.891Z,101697.88
2024-01-25T05:37:16.922Z,101706.09
2024-01-25T05:39:43.530Z,101699.19
2024-01-25T05:42:10.045Z,101701.97
2024-01-25T05:44:36.442Z,101709.66
2024-01-25T05:47:03.000Z,101710.81
2024-01-25T05:49:30.931Z,101717.75
2024-01-25T05:51:57.954Z,101708.84
2024-01-25T05:54:24.440Z,101714.34
2024-01-25T05:56:50.948Z,101708.97
2024-01-25T05:59:17.964Z,101724.38
2024-01-25T06:01:44.458Z,101727.28
2024-01-25T06:04:11.099Z,101726.63
2024-01-25T06:06:39.019Z,101726.81
2024-01-25T06:09:12.256Z,101720.34
2024-01-25T06:11:40.271Z,101732.16
2024-01-25T06:14:06.882Z,101736.78
2024-01-25T06:16:33.360Z,101742.78
2024-01-25T06:18:59.969Z,101735.06
2024-01-25T06:21:26.527Z,101744.03
2024-01-25T06:23:54.301Z,101745.47
2024-01-25T06:26:20.744Z,101738.56
2024-01-25T06:28:47.280Z,101746.22
2024-01-25T06:31:15.262Z,101747.44
2024-01-25T06:33:42.075Z,101756.09
2024-01-25T06:36:08.935Z,101754.31
2024-01-25T06:38:35.399Z,101760.81
2024-01-25T06:41:03.239Z,101765.16
2024-01-25T06:43:29.906Z,101766.75
2024-01-25T06:45:56.368Z,101771.34
2024-01-25T06:48:25.797Z,101786.63
2024-01-25T06:50:52.426Z,101775.25
2024-01-25T06:53:20.023Z,101786.16
2024-01-25T06:55:46.492Z,101775.63
2024-01-25T06:58:14.340Z,101793.63
2024-01-25T07:00:41.663Z,101784.72
2024-01-25T07:03:09.006Z,101800.13
2024-01-25T07:05:35.897Z,101804.88
2024-01-25T07:08:02.680Z,101813.03
2024-01-25T07:10:29.144Z,101814.50
2024-01-25T07:12:55.741Z,101809.47
2024-01-25T07:15:23.481Z,101817.94
2024-01-25T07:17:50.151Z,101807.56
2024-01-25T07:20:17.704Z,101805.38
2024-01-25T07:22:44.513Z,101813.47
2024-01-25T07:25:11.639Z,101803.34
2024-01-25T07:27:38.118Z,101808.91
2024-01-25T07:30:05.229Z,101813.28
2024-01-25T07:32:33.019Z,101816.38
2024-01-25T07:34:59.594Z,101830.53
2024-01-25T07:37:26.228Z,101830.00
2024-01-25T07:39:52.806Z,101830.94
2024-01-25T07:42:19.280Z,101835.66
2024-01-25T07:44:45.718Z,101834.56
2024-01-25T07:47:12.301Z,101834.84
2024-01-25T07:49:41.419Z,101836.50
2024-01-25T07:52:08.045Z,101846.19
2024-01-25T07:54:34.575Z,101847.81
2024-01-25T07:57:01.055Z,101849.34
2024-01-25T07:59:27.459Z,101845.38
2024-01-25T08:01:54.248Z,101854.97
2024-01-25T08:04:20.917Z,101850.56
2024-01-25T08:06:48.917Z,101862.28
2024-01-25T08:09:15.450Z,101855.72
2024-01-25T08:11:42.471Z,101862.03
2024-01-25T08:14:09.080Z,101852.03
2024-01-25T08:16:38.824Z,101856.28
2024-01-25T08:19:05.344Z,101846.69
2024-01-25T08:21:32.064Z,101848.88
2024-01-25T08:23:59.923Z,101853.00
2024-01-25T08:26:26.355Z,101863.78
2024-01-25T08:28:52.782Z,101872.41
2024-01-25T08:31:19.246Z,101877.41
2024-01-25T08:33:47.419Z,101870.84
2024-01-25T08:36:14.380Z,101876.38
2024-01-25T08:38:40.807Z,101879.75
2024-01-25T08:41:08.535Z,101875.13
2024-01-25T08:43:34.997Z,101876.50
2024-01-25T08:46:01.577Z,101894.63
2024-01-25T08:48:28.100Z,101893.72
2024-01-25T08:50:54.725Z,101900.31
2024-01-25T08:53:21.309Z,101896.72
2024-01-25T08:55:47.705Z,101898.78
2024-01-25T08:58:15.496Z,101899.88
2024-01-25T09:00:42.081Z,101907.22
2024-01-25T09:03:08.540Z,101907.69
2024-01-25T09:05:35.088Z,101907.72
2024-01-25T09:08:01.889Z,101921.38
2024-01-25T09:10:28.521Z,101920.41
2024-01-25T09:12:55.055Z,101927.41
2024-01-25T09:15:22.793Z,101933.31
2024-01-25T09:17:49.241Z,101939.09
2024-01-25T09:20:16.216Z,101937.13
2024-01-25T09:22:42.830Z,101949.00
2024-01-25T09:25:10.306Z,101944.69
2024-01-25T09:27:37.003Z,101944.13
2024-01-25T09:30:03.949Z,101947.22
2024-01-25T09:32:31.794Z,101945.75
2024-01-25T09:34:58.341Z,101956.69
2024-01-25T09:37:25.365Z,101942.19
2024-01-25T09:39:52.116Z,101951.38
2024-01-25T09:42:19.245Z,101958.75
2024-01-25T09:44:45.953Z,101963.09
2024-01-25T09:47:12.822Z,101951.66
2024-01-25T09:49:42.539Z,101956.91
2024-01-25T09:52:13.610Z,101962.91
2024-01-25T09:54:40.973Z,101963.75
2024-01-25T09:57:14.571Z,101968.31
2024-01-25T09:59:41.832Z,101969.19
2024-01-25T10:02:10.662Z,101973.78
2024-01-25T10:04:37.462Z,101971.38
2024-01-25T10:07:05.677Z,101961.25
2024-01-25T10:09:39.493Z,101961.94
2024-01-25T10:14:36.319Z,101955.56
2024-01-25T10:17:02.814Z,101966.41
2024-01-25T10:19:29.813Z,101964.97
2024-01-25T10:21:57.398Z,101962.00
2024-01-25T10:24:25.532Z,101961.31
2024-01-25T10:26:52.001Z,101955.19
2024-01-25T10:29:19.009Z,101959.53
2024-01-25T10:31:46.533Z,101950.09
2024-01-25T10:34:15.079Z,101968.19
2024-01-25T10:36:42.040Z,101960.34
2024-01-25T10:39:09.959Z,101971.53
2024-01-25T10:41:38.579Z,101954.16
2024-01-25T10:44:05.405Z,101966.91
2024-01-25T10:46:33.264Z,101975.56
2024-01-25T10:49:00.050Z,101965.25
2024-01-25T10:51:27.581Z,101980.59
2024-01-25T10:53:54.554Z,101974.69
2024-01-25T10:56:21.500Z,101971.94
2024-01-25T10:58:49.415Z,101980.97
2024-01-25T11:01:18.252Z,101986.31
2024-01-25T11:03:47.103Z,101982.81
2024-01-25T11:06:15.142Z,101977.88
2024-01-25T11:08:42.432Z,101977.72
2024-01-25T11:11:11.777Z,101979.59
2024-01-25T11:13:40.251Z,101972.34
2024-01-25T11:16:18.666Z,101980.84
2024-01-25T11:18:51.957Z,101974.34
2024-01-25T11:21:29.785Z,101983.00
2024-01-25T11:24:02.841Z,101981.84
2024-01-25T11:26:29.616Z,101979.03
2024-01-25T11:28:56.334Z,101974.69
2024-01-25T11:31:24.454Z,101985.53
2024-01-25T11:33:52.355Z,101978.13
2024-01-25T11:36:21.700Z,101975.44
2024-01-25T11:38:48.110Z,101973.50
2024-01-25T11:41:14.797Z,101976.31
2024-01-25T11:43:41.534Z,101978.13
2024-01-25T11:46:08.497Z,101968.47
2024-01-25T11:48:39.938Z,101978.50
2024-01-25T11:51:06.513Z,101973.97
2024-01-25T11:53:33.102Z,101969.28
2024-01-25T11:55:59.747Z,101977.31
2024-01-25T11:58:26.596Z,101974.47
2024-01-25T12:00:53.531Z,101979.50
2024-01-25T12:03:20.245Z,101974.41
2024-01-25T12:05:48.350Z,101983.38
2024-01-25T12:08:15.137Z,101973.38
2024-01-25T12:10:41.739Z,101978.34
2024-01-25T12:13:08.712Z,101975.72
2024-01-25T12:15:35.613Z,101977.00
2024-01-25T12:18:02.235Z,101967.91
2024-01-25T12:20:29.555Z,101967.03
2024-01-25T12:22:59.586Z,101962.44
2024-01-25T12:25:26.080Z,101962.34
2024-01-25T12:27:54.758Z,101965.69
2024-01-25T12:30:21.236Z,101957.72
2024-01-25T12:32:49.253Z,101950.81
2024-01-25T12:35:15.886Z,101952.38
2024-01-25T12:37:42.478Z,101949.13
2024-01-25T12:40:11.079Z,101948.00
2024-01-25T12:42:37.733Z,101949.03
2024-01-25T12:45:05.490Z,101946.75
2024-01-25T12:47:33.372Z,101946.44
2024-01-25T12:49:59.940Z,101949.34
2024-01-25T12:52:27.028Z,101940.78
2024-01-25T12:54:53.701Z,101954.94
2024-01-25T12:57:21.713Z,101949.97
2024-01-25T12:59:48.585Z,101950.31
2024-01-25T13:02:15.958Z,101948.78
2024-01-25T13:04:42.567Z,101946.69
2024-01-25T13:07:09.169Z,101949.31
2024-01-25T13:09:35.636Z,101942.31
2024-01-25T13:12:02.216Z,101936.97
2024-01-25T13:14:30.142Z,101943.56
2024-01-25T13:16:56.712Z,101935.56
2024-01-25T13:19:23.343Z,101939.28
2024-01-25T13:21:51.655Z,101942.59
2024-01-25T13:24:19.523Z,101943.41
2024-01-25T13:26:45.979Z,101940.38
2024-01-25T13:29:12.373Z,101944.88
2024-01-25T13:31:40.195Z,101942.69
2024-01-25T13:34:06.837Z,101938.59
2024-01-25T13:36:33.404Z,101939.84
2024-01-25T13:38:59.884Z,101930.09
2024-01-25T13:41:27.450Z,101928.31
2024-01-25T13:43:53.871Z,101934.94
2024-01-25T13:46:22.063Z,101936.78
2024-01-25T13:48:50.549Z,101934.88
2024-01-25T13:51:17.148Z,101926.69
2024-01-25T13:53:43.583Z,101930.88
2024-01-25T13:56:10.041Z,101924.97
2024-01-25T13:58:36.486Z,101925.81
2024-01-25T14:01:03.018Z,101923.09
2024-01-25T14:03:29.575Z,101920.06
2024-01-25T14:05:57.538Z,101919.41
2024-01-25T14:08:24.496Z,101923.47
2024-01-25T14:10:51.053Z,101932.88
2024-01-25T14:13:17.711Z,101933.63
2024-01-25T14:15:44.177Z,101931.66
2024-01-25T14:18:10.726Z,101934.19
2024-01-25T14:20:37.246Z,101927.72
2024-01-25T14:23:08.180Z,101932.25
2024-01-25T14:25:34.841Z,101933.88
2024-01-25T14:28:01.375Z,101926.53
2024-01-25T14:30:28.110Z,101926.38
2024-01-25T14:32:55.928Z,101929.91
2024-01-25T14:35:23.311Z,101918.59
2024-01-25T14:37:49.762Z,101913.81
2024-01-25T14:40:24.931Z,101919.88
2024-01-25T14:43:03.763Z,101926.63
2024-01-25T14:45:30.202Z,101924.06
2024-01-25T14:47:56.714Z,101928.94
2024-01-25T14:50:23.230Z,101927.41
2024-01-25T14:52:49.681Z,101927.66
2024-01-25T14:55:17.669Z,101920.97
2024-01-25T14:57:44.764Z,101921.75
2024-01-25T15:00:12.473Z,101921.22
2024-01-25T15:02:38.914Z,101935.44
2024-01-25T15:05:06.113Z,101934.09
2024-01-25T15:07:32.555Z,101937.31
2024-01-25T15:10:01.980Z,101925.41
2024-01-25T15:12:30.361Z,101922.00
2024-01-25T15:14:56.860Z,101929.75
2024-01-25T15:17:23.351Z,101919.28
2024-01-25T15:19:50.037Z,101918.41
2024-01-25T15:22:16.642Z,101923.22
2024-01-25T15:24:43.238Z,101926.44
2024-01-25T15:27:09.746Z,101914.31
2024-01-25T15:29:40.350Z,101906.06
2024-01-25T15:32:07.406Z,101909.72
2024-01-25T15:34:35.127Z,101916.81
2024-01-25T15:37:01.681Z,101902.56
2024-01-25T15:39:28.176Z,101915.22
2024-01-25T15:41:54.614Z,101911.78
2024-01-25T15:44:21.079Z,101908.91
2024-01-25T15:46:48.825Z,101911.13
2024-01-25T15:49:15.262Z,101906.91
2024-01-25T15:51:41.770Z,101909.59
2024-01-25T15:54:08.272Z,101908.16
2024-01-25T15:56:35.270Z,101895.28
2024-01-25T15:59:01.654Z,101899.97
2024-01-25T16:01:28.150Z,101899.88
2024-01-25T16:03:55.965Z,101900.47
2024-01-25T16:06:22.437Z,101904.38
2024-01-25T16:08:48.911Z,101899.47
2024-01-25T16:11:15.398Z,101890.38
2024-01-25T16:13:43.802Z,101893.72
2024-01-25T16:16:11.743Z,101889.09
2024-01-25T16:18:38.315Z,101894.88
2024-01-25T16:21:06.506Z,101899.59
2024-01-25T16:23:32.991Z,101888.94
2024-01-25T16:25:59.468Z,101887.44
2024-01-25T16:28:26.040Z,101886.59
2024-01-25T16:30:52.530Z,101884.94
2024-01-25T16:33:19.096Z,101888.19
2024-01-25T16:35:45.587Z,101890.19
2024-01-25T16:38:13.297Z,101883.38
2024-01-25T16:40:39.844Z,101881.16
2024-01-25T16:43:06.338Z,101879.22
2024-01-25T16:45:32.864Z,101882.31
2024-01-25T16:47:59.418Z,101885.66
2024-01-25T16:50:25.952Z,101887.28
2024-01-25T16:52:52.483Z,101889.28
2024-01-25T16:55:20.289Z,101885.34
2024-01-25T16:57:46.709Z,101889.00
2024-01-25T17:00:15.765Z,101888.19
2024-01-25T17:02:43.186Z,101885.38
2024-01-25T17:05:09.591Z,101879.00
2024-01-25T17:07:36.028Z,101875.59
2024-01-25T17:10:02.527Z,101870.13
2024-01-25T17:12:30.405Z,101885.78
2024-01-25T17:14:56.852Z,101879.00
2024-01-25T17:17:23.272Z,101882.88
2024-01-25T17:19:49.708Z,101881.81
2024-01-25T17:22:16.138Z,101873.16
2024-01-25T17:24:42.665Z,101871.81
2024-01-25T17:27:09.112Z,101871.56
2024-01-25T17:29:36.933Z,101867.56
2024-01-25T17:32:03.617Z,101871.19
2024-01-25T17:34:30.218Z,101866.03
2024-01-25T17:36:56.771Z,101872.06
2024-01-25T17:39:23.214Z,101868.09
2024-01-25T17:41:49.635Z,101860.09
2024-01-25T17:44:16.044Z,101859.28
2024-01-25T17:46:44.104Z,101861.38
2024-01-25T17:49:10.703Z,101857.59
2024-01-25T17:51:37.565Z,101853.91
2024-01-25T17:54:04.126Z,101862.09
2024-01-25T17:56:30.524Z,101851.78
2024-01-25T17:58:56.931Z,101859.94
2024-01-25T18:01:23.547Z,101853.78
2024-01-25T18:03:51.536Z,101850.75
2024-01-25T18:06:18.773Z,101852.25
2024-01-25T18:08:45.237Z,101852.06
2024-01-25T18:11:11.906Z,101850.19
2024-01-25T18:13:38.332Z,101840.19
2024-01-25T18:16:05.427Z,101845.03
2024-01-25T18:18:31.926Z,101835.03
2024-01-25T18:20:59.638Z,101834.63
2024-01-25T18:23:26.046Z,101828.94
2024-01-25T18:25:52.490Z,101827.97
2024-01-25T18:28:19.098Z,101831.38
2024-01-25T18:30:45.672Z,101822.16
2024-01-25T18:33:12.605Z,101826.38
2024-01-25T18:35:39.092Z,101816.63
2024-01-25T18:38:06.858Z,101814.75
2024-01-25T18:40:33.306Z,101811.91
2024-01-25T18:42:59.718Z,101815.34
2024-01-25T18:45:26.185Z,101805.94
2024-01-25T18:47:52.713Z,101805.47
2024-01-25T18:50:19.192Z,101810.91
2024-01-25T18:52:45.720Z,101807.66
2024-01-25T18:55:15.074Z,101810.75
2024-01-25T18:57:42.162Z,101815.63
2024-01-25T19:00:09.715Z,101813.38
2024-01-25T19:02:36.587Z,101811.28
2024-01-25T19:05:04.140Z,101805.72
2024-01-25T19:07:31.121Z,101813.38
2024-01-25T19:09:57.644Z,101815.25
2024-01-25T19:12:25.434Z,101800.75
2024-01-25T19:14:52.015Z,101805.31
2024-01-25T19:17:19.003Z,101813.72
2024-01-25T19:19:45.427Z,101810.91
2024-01-25T19:22:11.842Z,101809.75
2024-01-25T19:24:38.273Z,101807.91
2024-01-25T19:27:04.975Z,101804.50
2024-01-25T19:29:32.718Z,101803.66
2024-01-25T19:31:59.100Z,101799.09
2024-01-25T19:34:25.602Z,101802.84
2024-01-25T19:36:52.132Z,101802.34
2024-01-25T19:39:19.343Z,101807.97
2024-01-25T19:41:45.974Z,101811.47
2024-01-25T19:44:12.469Z,101815.63
2024-01-25T19:46:40.513Z,101816.44
2024-01-25T19:49:07.244Z,101806.94
2024-01-25T19:51:33.810Z,101805.63
2024-01-25T19:54:00.235Z,101797.97
2024-01-25T19:56:26.629Z,101804.06
2024-01-25T19:58:53.131Z,101795.50
2024-01-25T20:01:20.359Z,101792.97
2024-01-25T20:03:49.036Z,101793.13
2024-01-25T20:06:16.208Z,101802.34
2024-01-25T20:08:43.138Z,101803.25
2024-01-25T20:11:09.535Z,101801.31
2024-01-25T20:13:36.012Z,101807.22
2024-01-25T20:16:02.530Z,101799.09
2024-01-25T20:18:29.097Z,101802.34
2024-01-25T20:20:57.917Z,101807.38
2024-01-25T20:23:25.045Z,101804.38
2024-01-25T20:25:51.479Z,101805.72
2024-01-25T20:28:17.939Z,101796.31
2024-01-25T20:30:44.709Z,101793.81
2024-01-25T20:33:11.350Z,101793.34
2024-01-25T20:35:38.058Z,101792.81
2024-01-25T20:38:05.775Z,101792.31
2024-01-25T20:40:32.173Z,101790.97
2024-01-25T20:42:58.718Z,101787.28
2024-01-25T20:45:25.223Z,101789.75
2024-01-25T20:47:51.714Z,101786.19
2024-01-25T20:50:25.638Z,101788.31
2024-01-25T20:52:56.671Z,101775.94
2024-01-25T20:55:24.434Z,101772.78
2024-01-25T20:57:51.200Z,101760.78
2024-01-25T21:00:18.089Z,101766.53
2024-01-25T21:02:44.942Z,101762.38
2024-01-25T21:05:12.781Z,101760.78
2024-01-25T21:07:39.793Z,101752.72
2024-01-25T21:10:08.027Z,101755.13
2024-01-25T21:12:36.738Z,101744.31
2024-01-25T21:15:03.964Z,101747.41
2024-01-25T21:17:30.381Z,101746.78
2024-01-25T21:19:56.877Z,101751.06
2024-01-25T21:22:23.337Z,101767.53
2024-01-25T21:24:49.838Z,101761.69
2024-01-25T21:27:16.226Z,101759.28
2024-01-25T21:29:44.038Z,101752.03
2024-01-25T21:32:10.485Z,101749.63
2024-01-25T21:34:36.985Z,101747.56
2024-01-25T21:37:03.835Z,101752.13
2024-01-25T21:39:30.427Z,101749.69
2024-01-25T21:41:56.896Z,101745.72
2024-01-25T21:44:23.329Z,101749.50
2024-01-25T21:46:51.209Z,101741.75
2024-01-25T21:49:19.209Z,101740.69
2024-01-25T21:51:46.964Z,101740.09
2024-01-25T21:54:13.812Z,101740.56
2024-01-25T21:56:40.841Z,101738.44
2024-01-25T21:59:07.764Z,101742.25
2024-01-25T22:01:35.031Z,101739.66
2024-01-25T22:04:03.118Z,101742.06
2024-01-25T22:06:29.951Z,101734.47
2024-01-25T22:08:56.501Z,101735.00
2024-01-25T22:11:22.886Z,101726.66
2024-01-25T22:13:49.324Z,101724.66
2024-01-25T22:16:15.745Z,101726.69
2024-01-25T22:18:42.202Z,101729.22
2024-01-25T22:21:10.834Z,101725.63
2024-01-25T22:23:37.238Z,101722.72
2024-01-25T22:26:04.061Z,101726.56
2024-01-25T22:28:30.486Z,101721.47
2024-01-25T22:30:56.957Z,101718.66
2024-01-25T22:33:23.570Z,101716.66
2024-01-25T22:35:50.336Z,101721.81
2024-01-25T22:38:18.069Z,101717.44
2024-01-25T22:40:44.482Z,101717.50
2024-01-25T22:43:10.860Z,101715.91
2024-01-25T22:45:37.391Z,101710.19
2024-01-25T22:48:04.692Z,101706.59
2024-01-25T22:50:31.120Z,101709.44
2024-01-25T22:52:57.548Z,101699.19
2024-01-25T22:55:25.420Z,101702.44
2024-01-25T22:57:52.065Z,101691.94
2024-01-25T23:00:19.360Z,101689.75
2024-01-25T23:02:45.842Z,101685.53
2024-01-25T23:05:12.732Z,101691.34
2024-01-25T23:07:40.570Z,101697.88
2024-01-25T23:10:07.781Z,101690.94
2024-01-25T23:12:35.583Z,101689.19
2024-01-25T23:15:02.134Z,101684.22
2024-01-25T23:17:28.832Z,101682.22
2024-01-25T23:19:55.414Z,101671.78
2024-01-25T23:22:22.148Z,101672.78
2024-01-25T23:24:48.594Z,101662.56
2024-01-25T23:27:15.079Z,101654.28
2024-01-25T23:29:43.228Z,101658.56
2024-01-25T23:32:09.633Z,101659.03
2024-01-25T23:34:36.075Z,101665.59
2024-01-25T23:37:02.595Z,101675.19
2024-01-25T23:39:29.090Z,101667.78
2024-01-25T23:41:56.604Z,101670.22
2024-01-25T23:44:23.078Z,101666.84
2024-01-25T23:46:50.817Z,101670.44
2024-01-25T23:49:17.604Z,101663.09
2024-01-25T23:51:44.572Z,101661.28
2024-01-25T23:54:11.021Z,101660.00
2024-01-25T23:56:37.863Z,101659.63
2024-01-25T23:59:04.462Z,101659.16
